Genius Star Xii — 3FDB3 — position and weather

sailwx.info

Track history (hours):
 
Tides and Currents Weather Stations Pressure Air Temp Water Temp Dewpoint Dewpoint Depression Visibility Wind Speed Wind Dir Waves Ship Positions

Genius Star Xii

Last reported at 2017-Nov-10 16:08 UTC. Time now 2017-Nov-19 21:46 UTC.
Position N 22°09' W 017°57'.
Warning: this ship's position is 9 days out of date.

Length 125 m; draft 8.1 m.

Type: Cargo ship. MMSI: 351550000.

Date/timePositionNaut miles runAvg speedWind from/ knotsBaromVisibWave heightAir tempDewpointWater temp
2017-Nov-10 16:08N 22°09' W 017°57'4312.1
2017-Nov-10 12:33N 22°50' W 017°42'212.1
2017-Nov-10 12:24N 22°52' W 017°41'512.0
2017-Nov-10 12:00N 22°57' W 017°39'30812.1
2017-Nov-09 10:25N 27°36' W 015°16'512.3
2017-Nov-09 10:00N 27°41' W 015°13'612.7
2017-Nov-09 09:30N 27°47' W 015°10'612.2
2017-Nov-09 09:00N 27°52' W 015°07'611.7
2017-Nov-09 08:30N 27°58' W 015°05'611.5
2017-Nov-09 08:00N 28°03' W 015°02'611.4
2017-Nov-09 07:30N 28°08' W 015°00'611.7
2017-Nov-09 07:00N 28°14' W 014°58'612.0
2017-Nov-09 06:30N 28°19' W 014°55'611.4
2017-Nov-09 06:00N 28°25' W 014°54'611.2
2017-Nov-09 05:30N 28°30' W 014°52'611.3
2017-Nov-09 05:00N 28°36' W 014°51'611.7
2017-Nov-09 04:30N 28°42' W 014°49'611.6
2017-Nov-09 03:58N 28°48' W 014°48'611.9
2017-Nov-09 03:28N 28°54' W 014°46'2311.8
2017-Nov-09 01:33N 29°16' W 014°40'411.9
2017-Nov-09 01:10N 29°20' W 014°39'4811.9
2017-Nov-08 21:06N 30°07' W 014°27'311.6
2017-Nov-08 20:50N 30°10' W 014°26'411.4
2017-Nov-08 20:30N 30°14' W 014°25'611.4
2017-Nov-08 19:59N 30°20' W 014°24'611.6
2017-Nov-08 19:30N 30°25' W 014°22'1311.2
2017-Nov-08 18:19N 30°38' W 014°18'311.1
2017-Nov-08 18:00N 30°41' W 014°18'611.1
2017-Nov-08 17:30N 30°47' W 014°16'1611.3
2017-Nov-08 16:04N 31°03' W 014°12'111.4
2017-Nov-08 16:00N 31°03' W 014°12'  
2017-Nov-04 03:40N 49°44' W 003°37'210.2
2017-Nov-04 03:30N 49°45' W 003°34'510.6
2017-Nov-04 03:00N 49°48' W 003°27'611.4
2017-Nov-04 02:30N 49°50' W 003°20'712.4
2017-Nov-04 01:58N 49°54' W 003°11'613.3
2017-Nov-04 01:30N 49°57' W 003°03'713.8
2017-Nov-04 01:00N 49°60' W 002°52'714.1
2017-Nov-04 00:30N 50°02' W 002°42'714.1
2017-Nov-04 00:00N 50°03' W 002°32'1513.4
2017-Nov-03 22:55N 50°07' W 002°10'812.0
2017-Nov-03 22:16N 50°09' W 001°58'311.1
2017-Nov-03 22:00N 50°10' W 001°54'510.3
2017-Nov-03 21:30N 50°12' W 001°46'5 9.5
2017-Nov-03 21:00N 50°13' W 001°39'9 8.6
2017-Nov-03 19:55N 50°15' W 001°25'3 8.1
2017-Nov-03 19:30N 50°16' W 001°20'4 8.2
2017-Nov-03 19:00N 50°17' W 001°13'4 8.1
2017-Nov-03 18:30N 50°18' W 001°07'12 9.6
2017-Nov-03 17:16N 50°22' W 000°49'1411.9
2017-Nov-03 16:05N 50°26' W 000°28'112.7
2017-Nov-03 15:59N 50°26' W 000°26'912.8
2017-Nov-03 15:17N 50°29' W 000°13'412.9
2017-Nov-03 14:59N 50°30' W 000°07'612.9
2017-Nov-03 14:30N 50°31' E 000°03'612.9
2017-Nov-03 14:00N 50°33' E 000°12'612.8
2017-Nov-03 13:30N 50°35' E 000°22'612.5
2017-Nov-03 13:00N 50°37' E 000°31'612.1
2017-Nov-03 12:30N 50°38' E 000°41'611.4
2017-Nov-03 12:00N 50°41' E 000°49'511.0
2017-Nov-03 11:31N 50°44' E 000°55'510.3
2017-Nov-03 10:59N 50°48' E 001°02'510.0
2017-Nov-03 10:29N 50°51' E 001°08'5 9.8
2017-Nov-03 10:01N 50°54' E 001°14'510.1
2017-Nov-03 09:29N 50°57' E 001°20'510.7
2017-Nov-03 09:00N 51°01' E 001°26'612.1
2017-Nov-03 08:30N 51°05' E 001°33'713.2
2017-Nov-03 08:00N 51°10' E 001°40'713.9
2017-Nov-03 07:30N 51°15' E 001°48'714.1
2017-Nov-03 07:00N 51°21' E 001°54'612.5
2017-Nov-03 06:31N 51°25' E 002°02'611.8
2017-Nov-03 06:01N 51°22' E 002°10'611.8
2017-Nov-03 05:30N 51°21' E 002°19'713.2
2017-Nov-03 05:00N 51°23' E 002°30'612.6
2017-Nov-03 04:30N 51°22' E 002°40'5 9.3
2017-Nov-03 04:01N 51°22' E 002°47'611.8
2017-Nov-03 03:30N 51°23' E 002°57'511.0
2017-Nov-03 03:01N 51°24' E 003°05'611.4
2017-Nov-03 02:31N 51°25' E 003°14'611.5
2017-Nov-03 02:01N 51°25' E 003°23'611.5
2017-Nov-03 01:31N 51°26' E 003°32'5 9.8
2017-Nov-03 01:01N 51°25' E 003°40'510.7
2017-Nov-03 00:31N 51°21' E 003°47'4 8.6
2017-Nov-03 00:00N 51°22' E 003°54'4 7.1
2017-Nov-02 23:31N 51°24' E 003°57'3 5.7
2017-Nov-02 23:01N 51°26' E 004°02'4 7.9
2017-Nov-02 22:30N 51°22' E 004°05'4 8.7
2017-Nov-02 22:00N 51°24' E 004°12'4 8.5
2017-Nov-02 21:31N 51°21' E 004°16'4 7.9
2017-Nov-02 21:01N 51°17' E 004°19'1 1.7
2017-Nov-02 20:31N 51°17' E 004°20'0 0.0
2017-Nov-02 20:00N 51°17' E 004°20'2 3.3
2017-Nov-02 19:30N 51°15' E 004°22'1 2.2
2017-Nov-02 19:00N 51°15' E 004°23'0 0.0
2017-Nov-02 18:30N 51°15' E 004°23'0 0.0
2017-Nov-02 17:59N 51°15' E 004°23'0 0.0
2017-Nov-02 17:30N 51°15' E 004°23'0 0.0
2017-Nov-02 17:00N 51°15' E 004°23'0 0.0
2017-Nov-02 16:30N 51°15' E 004°23'0 0.0
2017-Nov-02 16:00N 51°15' E 004°23'0 0.0
2017-Nov-02 15:30N 51°15' E 004°23'0 0.0
2017-Nov-02 14:59N 51°15' E 004°23'0 0.0
2017-Nov-02 14:29N 51°15' E 004°23'0 0.0
2017-Nov-02 14:00N 51°15' E 004°23'0 0.0
2017-Nov-02 13:30N 51°15' E 004°23'0 0.0
2017-Nov-02 12:59N 51°15' E 004°23'0 0.0
2017-Nov-02 12:29N 51°15' E 004°23'0 0.0
2017-Nov-02 11:59N 51°15' E 004°23'0 0.0
2017-Nov-02 11:30N 51°15' E 004°23'0 0.0
2017-Nov-02 11:00N 51°15' E 004°23'0 0.0
2017-Nov-02 10:29N 51°15' E 004°23'0 0.0
2017-Nov-02 09:59N 51°15' E 004°23'0 0.0
2017-Nov-02 09:30N 51°15' E 004°23'0 0.0
2017-Nov-02 09:00N 51°15' E 004°23'0 0.0
2017-Nov-02 08:30N 51°15' E 004°23'0 0.0
2017-Nov-02 07:59N 51°15' E 004°23'0 0.0
2017-Nov-02 07:29N 51°15' E 004°23'0 0.0
2017-Nov-02 07:00N 51°15' E 004°23'0 0.0
2017-Nov-02 06:29N 51°15' E 004°23'0 0.0
2017-Nov-02 06:00N 51°15' E 004°23'0 0.0
2017-Nov-02 05:29N 51°15' E 004°23'0 0.0
2017-Nov-02 05:00N 51°15' E 004°23'0 0.0
2017-Nov-02 04:30N 51°15' E 004°23'0 0.0
2017-Nov-02 03:59N 51°15' E 004°23'0 0.0
2017-Nov-02 03:30N 51°15' E 004°23'0 0.0
2017-Nov-02 02:59N 51°15' E 004°23'0 0.0
2017-Nov-02 02:30N 51°15' E 004°23'1 1.0
2017-Nov-02 02:00N 51°15' E 004°24'1 1.6
2017-Nov-02 01:28N 51°16' E 004°24'0 0.0
2017-Nov-02 00:58N 51°16' E 004°24'0 0.0
2017-Nov-02 00:28N 51°16' E 004°24'0 0.0
2017-Nov-01 23:58N 51°16' E 004°24'0 0.0
2017-Nov-01 23:28N 51°16' E 004°24'0 0.0
2017-Nov-01 22:58N 51°16' E 004°24'0 0.0
2017-Nov-01 22:28N 51°16' E 004°24'0 0.0
2017-Nov-01 21:58N 51°16' E 004°24'0 0.0
2017-Nov-01 21:28N 51°16' E 004°24'0 0.0
2017-Nov-01 20:58N 51°16' E 004°24'0 0.0
2017-Nov-01 20:28N 51°16' E 004°24'0 0.0
2017-Nov-01 19:58N 51°16' E 004°24'0 0.0
2017-Nov-01 19:22N 51°16' E 004°24'0 0.0
2017-Nov-01 18:58N 51°16' E 004°24'0 0.0
2017-Nov-01 18:28N 51°16' E 004°24'0 0.0
2017-Nov-01 02:01N 51°16' E 004°24'0 0.0
2017-Nov-01 01:31N 51°16' E 004°24'0 0.0
2017-Nov-01 00:58N 51°16' E 004°24'0 0.0
2017-Nov-01 00:31N 51°16' E 004°24'0 0.0
2017-Nov-01 00:00N 51°16' E 004°24'0 0.0
2017-Oct-31 23:30N 51°16' E 004°24'0 0.0
2017-Oct-31 23:01N 51°16' E 004°24'0 0.0
2017-Oct-31 22:30N 51°16' E 004°24'0 0.0
2017-Oct-31 21:58N 51°16' E 004°24'0 0.0
2017-Oct-31 21:30N 51°16' E 004°24'0 0.0
2017-Oct-31 20:57N 51°16' E 004°24'0 0.0
2017-Oct-31 20:28N 51°16' E 004°24'0 0.0
2017-Oct-31 20:00N 51°16' E 004°24'0 0.0
2017-Oct-31 19:30N 51°16' E 004°24'0 0.0
2017-Oct-31 19:00N 51°16' E 004°24'0 0.0
2017-Oct-31 18:31N 51°16' E 004°24'0 0.0
2017-Oct-31 18:00N 51°16' E 004°24'0 0.0
2017-Oct-31 17:30N 51°16' E 004°24'0 0.0
2017-Oct-31 17:00N 51°16' E 004°24'0 0.0
2017-Oct-31 16:31N 51°16' E 004°24'  
Track history (hours):
 
Tides and Currents Weather Stations Pressure Air Temp Water Temp Dewpoint Dewpoint Depression Visibility Wind Speed Wind Dir Waves Ship Positions

Genius Star Xii

Last reported at 2017-Nov-10 16:08 UTC. Time now 2017-Nov-19 21:46 UTC.
Position N 22°09' W 017°57'.
Warning: this ship's position is 9 days out of date.

Length 125 m; draft 8.1 m.

Type: Cargo ship. MMSI: 351550000.

Date/timePositionNaut miles runAvg speedWind from/ knotsBaromVisibWave heightAir tempDewpointWater temp
2017-Nov-10 16:08N 22°09' W 017°57'4312.1
2017-Nov-10 12:33N 22°50' W 017°42'212.1
2017-Nov-10 12:24N 22°52' W 017°41'512.0
2017-Nov-10 12:00N 22°57' W 017°39'30812.1
2017-Nov-09 10:25N 27°36' W 015°16'512.3
2017-Nov-09 10:00N 27°41' W 015°13'612.7
2017-Nov-09 09:30N 27°47' W 015°10'612.2
2017-Nov-09 09:00N 27°52' W 015°07'611.7
2017-Nov-09 08:30N 27°58' W 015°05'611.5
2017-Nov-09 08:00N 28°03' W 015°02'611.4
2017-Nov-09 07:30N 28°08' W 015°00'611.7
2017-Nov-09 07:00N 28°14' W 014°58'612.0
2017-Nov-09 06:30N 28°19' W 014°55'611.4
2017-Nov-09 06:00N 28°25' W 014°54'611.2
2017-Nov-09 05:30N 28°30' W 014°52'611.3
2017-Nov-09 05:00N 28°36' W 014°51'611.7
2017-Nov-09 04:30N 28°42' W 014°49'611.6
2017-Nov-09 03:58N 28°48' W 014°48'611.9
2017-Nov-09 03:28N 28°54' W 014°46'2311.8
2017-Nov-09 01:33N 29°16' W 014°40'411.9
2017-Nov-09 01:10N 29°20' W 014°39'4811.9
2017-Nov-08 21:06N 30°07' W 014°27'311.6
2017-Nov-08 20:50N 30°10' W 014°26'411.4
2017-Nov-08 20:30N 30°14' W 014°25'611.4
2017-Nov-08 19:59N 30°20' W 014°24'611.6
2017-Nov-08 19:30N 30°25' W 014°22'1311.2
2017-Nov-08 18:19N 30°38' W 014°18'311.1
2017-Nov-08 18:00N 30°41' W 014°18'611.1
2017-Nov-08 17:30N 30°47' W 014°16'1611.3
2017-Nov-08 16:04N 31°03' W 014°12'111.4
2017-Nov-08 16:00N 31°03' W 014°12'  
2017-Nov-04 03:40N 49°44' W 003°37'210.2
2017-Nov-04 03:30N 49°45' W 003°34'510.6
2017-Nov-04 03:00N 49°48' W 003°27'611.4
2017-Nov-04 02:30N 49°50' W 003°20'712.4
2017-Nov-04 01:58N 49°54' W 003°11'613.3
2017-Nov-04 01:30N 49°57' W 003°03'713.8
2017-Nov-04 01:00N 49°60' W 002°52'714.1
2017-Nov-04 00:30N 50°02' W 002°42'714.1
2017-Nov-04 00:00N 50°03' W 002°32'1513.4
2017-Nov-03 22:55N 50°07' W 002°10'812.0
2017-Nov-03 22:16N 50°09' W 001°58'311.1
2017-Nov-03 22:00N 50°10' W 001°54'510.3
2017-Nov-03 21:30N 50°12' W 001°46'5 9.5
2017-Nov-03 21:00N 50°13' W 001°39'9 8.6
2017-Nov-03 19:55N 50°15' W 001°25'3 8.1
2017-Nov-03 19:30N 50°16' W 001°20'4 8.2
2017-Nov-03 19:00N 50°17' W 001°13'4 8.1
2017-Nov-03 18:30N 50°18' W 001°07'12 9.6
2017-Nov-03 17:16N 50°22' W 000°49'1411.9
2017-Nov-03 16:05N 50°26' W 000°28'112.7
2017-Nov-03 15:59N 50°26' W 000°26'912.8
2017-Nov-03 15:17N 50°29' W 000°13'412.9
2017-Nov-03 14:59N 50°30' W 000°07'612.9
2017-Nov-03 14:30N 50°31' E 000°03'612.9
2017-Nov-03 14:00N 50°33' E 000°12'612.8
2017-Nov-03 13:30N 50°35' E 000°22'612.5
2017-Nov-03 13:00N 50°37' E 000°31'612.1
2017-Nov-03 12:30N 50°38' E 000°41'611.4
2017-Nov-03 12:00N 50°41' E 000°49'511.0
2017-Nov-03 11:31N 50°44' E 000°55'510.3
2017-Nov-03 10:59N 50°48' E 001°02'510.0
2017-Nov-03 10:29N 50°51' E 001°08'5 9.8
2017-Nov-03 10:01N 50°54' E 001°14'510.1
2017-Nov-03 09:29N 50°57' E 001°20'510.7
2017-Nov-03 09:00N 51°01' E 001°26'612.1
2017-Nov-03 08:30N 51°05' E 001°33'713.2
2017-Nov-03 08:00N 51°10' E 001°40'713.9
2017-Nov-03 07:30N 51°15' E 001°48'714.1
2017-Nov-03 07:00N 51°21' E 001°54'612.5
2017-Nov-03 06:31N 51°25' E 002°02'611.8
2017-Nov-03 06:01N 51°22' E 002°10'611.8
2017-Nov-03 05:30N 51°21' E 002°19'713.2
2017-Nov-03 05:00N 51°23' E 002°30'612.6
2017-Nov-03 04:30N 51°22' E 002°40'5 9.3
2017-Nov-03 04:01N 51°22' E 002°47'611.8
2017-Nov-03 03:30N 51°23' E 002°57'511.0
2017-Nov-03 03:01N 51°24' E 003°05'611.4
2017-Nov-03 02:31N 51°25' E 003°14'611.5
2017-Nov-03 02:01N 51°25' E 003°23'611.5
2017-Nov-03 01:31N 51°26' E 003°32'5 9.8
2017-Nov-03 01:01N 51°25' E 003°40'510.7
2017-Nov-03 00:31N 51°21' E 003°47'4 8.6
2017-Nov-03 00:00N 51°22' E 003°54'4 7.1
2017-Nov-02 23:31N 51°24' E 003°57'3 5.7
2017-Nov-02 23:01N 51°26' E 004°02'4 7.9
2017-Nov-02 22:30N 51°22' E 004°05'4 8.7
2017-Nov-02 22:00N 51°24' E 004°12'4 8.5
2017-Nov-02 21:31N 51°21' E 004°16'4 7.9
2017-Nov-02 21:01N 51°17' E 004°19'1 1.7
2017-Nov-02 20:31N 51°17' E 004°20'0 0.0
2017-Nov-02 20:00N 51°17' E 004°20'2 3.3
2017-Nov-02 19:30N 51°15' E 004°22'1 2.2
2017-Nov-02 19:00N 51°15' E 004°23'0 0.0
2017-Nov-02 18:30N 51°15' E 004°23'0 0.0
2017-Nov-02 17:59N 51°15' E 004°23'0 0.0
2017-Nov-02 17:30N 51°15' E 004°23'0 0.0
2017-Nov-02 17:00N 51°15' E 004°23'0 0.0
2017-Nov-02 16:30N 51°15' E 004°23'0 0.0
2017-Nov-02 16:00N 51°15' E 004°23'0 0.0
2017-Nov-02 15:30N 51°15' E 004°23'0 0.0
2017-Nov-02 14:59N 51°15' E 004°23'0 0.0
2017-Nov-02 14:29N 51°15' E 004°23'0 0.0
2017-Nov-02 14:00N 51°15' E 004°23'0 0.0
2017-Nov-02 13:30N 51°15' E 004°23'0 0.0
2017-Nov-02 12:59N 51°15' E 004°23'0 0.0
2017-Nov-02 12:29N 51°15' E 004°23'0 0.0
2017-Nov-02 11:59N 51°15' E 004°23'0 0.0
2017-Nov-02 11:30N 51°15' E 004°23'0 0.0
2017-Nov-02 11:00N 51°15' E 004°23'0 0.0
2017-Nov-02 10:29N 51°15' E 004°23'0 0.0
2017-Nov-02 09:59N 51°15' E 004°23'0 0.0
2017-Nov-02 09:30N 51°15' E 004°23'0 0.0
2017-Nov-02 09:00N 51°15' E 004°23'0 0.0
2017-Nov-02 08:30N 51°15' E 004°23'0 0.0
2017-Nov-02 07:59N 51°15' E 004°23'0 0.0
2017-Nov-02 07:29N 51°15' E 004°23'0 0.0
2017-Nov-02 07:00N 51°15' E 004°23'0 0.0
2017-Nov-02 06:29N 51°15' E 004°23'0 0.0
2017-Nov-02 06:00N 51°15' E 004°23'0 0.0
2017-Nov-02 05:29N 51°15' E 004°23'0 0.0
2017-Nov-02 05:00N 51°15' E 004°23'0 0.0
2017-Nov-02 04:30N 51°15' E 004°23'0 0.0
2017-Nov-02 03:59N 51°15' E 004°23'0 0.0
2017-Nov-02 03:30N 51°15' E 004°23'0 0.0
2017-Nov-02 02:59N 51°15' E 004°23'0 0.0
2017-Nov-02 02:30N 51°15' E 004°23'1 1.0
2017-Nov-02 02:00N 51°15' E 004°24'1 1.6
2017-Nov-02 01:28N 51°16' E 004°24'0 0.0
2017-Nov-02 00:58N 51°16' E 004°24'0 0.0
2017-Nov-02 00:28N 51°16' E 004°24'0 0.0
2017-Nov-01 23:58N 51°16' E 004°24'0 0.0
2017-Nov-01 23:28N 51°16' E 004°24'0 0.0
2017-Nov-01 22:58N 51°16' E 004°24'0 0.0
2017-Nov-01 22:28N 51°16' E 004°24'0 0.0
2017-Nov-01 21:58N 51°16' E 004°24'0 0.0
2017-Nov-01 21:28N 51°16' E 004°24'0 0.0
2017-Nov-01 20:58N 51°16' E 004°24'0 0.0
2017-Nov-01 20:28N 51°16' E 004°24'0 0.0
2017-Nov-01 19:58N 51°16' E 004°24'0 0.0
2017-Nov-01 19:22N 51°16' E 004°24'0 0.0
2017-Nov-01 18:58N 51°16' E 004°24'0 0.0
2017-Nov-01 18:28N 51°16' E 004°24'0 0.0
2017-Nov-01 02:01N 51°16' E 004°24'0 0.0
2017-Nov-01 01:31N 51°16' E 004°24'0 0.0
2017-Nov-01 00:58N 51°16' E 004°24'0 0.0
2017-Nov-01 00:31N 51°16' E 004°24'0 0.0
2017-Nov-01 00:00N 51°16' E 004°24'0 0.0
2017-Oct-31 23:30N 51°16' E 004°24'0 0.0
2017-Oct-31 23:01N 51°16' E 004°24'0 0.0
2017-Oct-31 22:30N 51°16' E 004°24'0 0.0
2017-Oct-31 21:58N 51°16' E 004°24'0 0.0
2017-Oct-31 21:30N 51°16' E 004°24'0 0.0
2017-Oct-31 20:57N 51°16' E 004°24'0 0.0
2017-Oct-31 20:28N 51°16' E 004°24'0 0.0
2017-Oct-31 20:00N 51°16' E 004°24'0 0.0
2017-Oct-31 19:30N 51°16' E 004°24'0 0.0
2017-Oct-31 19:00N 51°16' E 004°24'0 0.0
2017-Oct-31 18:31N 51°16' E 004°24'0 0.0
2017-Oct-31 18:00N 51°16' E 004°24'0 0.0
2017-Oct-31 17:30N 51°16' E 004°24'0 0.0
2017-Oct-31 17:00N 51°16' E 004°24'0 0.0
2017-Oct-31 16:31N 51°16' E 004°24'  

Dump ship's entire track history